Huvudsida
METAR-TAF:

METAR-TAF

Flygplatser :

Mezjdunarodnyj aeroport "Issyk-Kul"

Tamchy, Kirgizistan

latitud: 42-35-17N, longitud: 076-42-47E, höjd: 1653 m

Aktuellt väderrapport

Denna rapport gjordes för 41 minuter sedan, klockan 15:00 UTC
Vind 2 kt varierande vindriktning
Temperatur 19°C
Fuktighet 22%
Tryck 1014 hPa
Sikt 10 km eller mer
Få moln på en höjd av 3000 ft, Cumulonimbus.
Brutna moln på en höjd av 10000 ft

METAR: UCFL 271500Z VRB01MPS 9999 FEW030CB BKN100 19/M03 Q1014 R07/CLRD70

Tid: 21:41 (15:41 UTC)


TAF: saknas

Aktuella väderrapporter och prognoser från 4000 flygplatser (METAR- och TAF-rapporter).

De tillgängliga stationerna syns som gula och röda prickar på kartan.

För musen över prickarna för att se namnen på stationerna.

Klicka sedan för att få väderrapporter och prognoser.

För att ändra kartan: Klicka på de gröna knapparna med ett svart kors på för att zooma in; den gröna knappen med ett streck på för att zooma ut; eller på de gröna pilarna för angränsande kartor.


METAR-TAF: